sensor_id;sensor_type;location;lat;lon;timestamp;temperature;humidity
70820;DHT22;58439;51.046;13.692;2023-05-31T00:01:39;14.10;47.90
70820;DHT22;58439;51.046;13.692;2023-05-31T00:04:07;14.10;48.20
70820;DHT22;58439;51.046;13.692;2023-05-31T00:06:35;14.00;49.40
70820;DHT22;58439;51.046;13.692;2023-05-31T00:09:03;14.00;50.50
70820;DHT22;58439;51.046;13.692;2023-05-31T00:11:30;14.00;50.40
70820;DHT22;58439;51.046;13.692;2023-05-31T00:13:57;13.90;50.60
70820;DHT22;58439;51.046;13.692;2023-05-31T00:16:24;13.80;51.40
70820;DHT22;58439;51.046;13.692;2023-05-31T00:19:12;13.80;52.30
70820;DHT22;58439;51.046;13.692;2023-05-31T00:21:40;13.80;52.50
70820;DHT22;58439;51.046;13.692;2023-05-31T00:24:07;13.80;52.60
70820;DHT22;58439;51.046;13.692;2023-05-31T00:26:34;13.80;52.80
70820;DHT22;58439;51.046;13.692;2023-05-31T00:29:01;13.70;52.80
70820;DHT22;58439;51.046;13.692;2023-05-31T00:31:28;13.60;53.50
70820;DHT22;58439;51.046;13.692;2023-05-31T00:33:57;13.50;55.30
70820;DHT22;58439;51.046;13.692;2023-05-31T00:36:24;13.50;55.10
70820;DHT22;58439;51.046;13.692;2023-05-31T00:38:54;13.40;56.60
70820;DHT22;58439;51.046;13.692;2023-05-31T00:41:21;13.40;57.30
70820;DHT22;58439;51.046;13.692;2023-05-31T00:43:50;13.30;57.60
70820;DHT22;58439;51.046;13.692;2023-05-31T00:46:26;13.30;58.00
70820;DHT22;58439;51.046;13.692;2023-05-31T00:48:55;13.20;58.70
70820;DHT22;58439;51.046;13.692;2023-05-31T00:51:24;13.10;60.10
70820;DHT22;58439;51.046;13.692;2023-05-31T00:53:54;13.00;60.70
70820;DHT22;58439;51.046;13.692;2023-05-31T00:56:23;13.00;61.30
70820;DHT22;58439;51.046;13.692;2023-05-31T00:58:51;13.10;61.50
70820;DHT22;58439;51.046;13.692;2023-05-31T01:01:20;13.10;61.60
70820;DHT22;58439;51.046;13.692;2023-05-31T01:03:53;13.00;61.40
70820;DHT22;58439;51.046;13.692;2023-05-31T01:06:23;12.90;62.80
70820;DHT22;58439;51.046;13.692;2023-05-31T01:08:51;12.80;63.00
70820;DHT22;58439;51.046;13.692;2023-05-31T01:11:41;12.80;63.70
70820;DHT22;58439;51.046;13.692;2023-05-31T01:17:34;12.90;65.70
70820;DHT22;58439;51.046;13.692;2023-05-31T01:20:20;12.90;64.10
70820;DHT22;58439;51.046;13.692;2023-05-31T01:23:11;12.90;64.40
70820;DHT22;58439;51.046;13.692;2023-05-31T01:28:53;12.80;64.70
70820;DHT22;58439;51.046;13.692;2023-05-31T01:31:27;12.60;65.90
70820;DHT22;58439;51.046;13.692;2023-05-31T01:33:57;12.60;67.00
70820;DHT22;58439;51.046;13.692;2023-05-31T01:36:25;12.60;67.20
70820;DHT22;58439;51.046;13.692;2023-05-31T01:38:52;12.60;67.10
70820;DHT22;58439;51.046;13.692;2023-05-31T01:41:20;12.60;67.20
70820;DHT22;58439;51.046;13.692;2023-05-31T01:43:50;12.60;67.10
70820;DHT22;58439;51.046;13.692;2023-05-31T01:46:18;12.70;67.00
70820;DHT22;58439;51.046;13.692;2023-05-31T01:48:48;12.70;67.40
70820;DHT22;58439;51.046;13.692;2023-05-31T01:51:19;12.70;67.60
70820;DHT22;58439;51.046;13.692;2023-05-31T01:53:48;12.70;68.30
70820;DHT22;58439;51.046;13.692;2023-05-31T01:56:17;12.60;68.40
70820;DHT22;58439;51.046;13.692;2023-05-31T01:58:49;12.60;68.70
70820;DHT22;58439;51.046;13.692;2023-05-31T02:01:20;12.60;69.60
70820;DHT22;58439;51.046;13.692;2023-05-31T02:03:50;12.60;70.00
70820;DHT22;58439;51.046;13.692;2023-05-31T02:06:20;12.50;70.40
70820;DHT22;58439;51.046;13.692;2023-05-31T02:08:48;12.50;70.40
70820;DHT22;58439;51.046;13.692;2023-05-31T02:11:15;12.40;70.80
70820;DHT22;58439;51.046;13.692;2023-05-31T02:13:42;12.20;71.40
70820;DHT22;58439;51.046;13.692;2023-05-31T02:16:10;12.20;72.50
70820;DHT22;58439;51.046;13.692;2023-05-31T02:18:37;12.10;72.80
70820;DHT22;58439;51.046;13.692;2023-05-31T02:21:06;12.10;73.00
70820;DHT22;58439;51.046;13.692;2023-05-31T02:23:33;12.10;73.20
70820;DHT22;58439;51.046;13.692;2023-05-31T02:26:01;12.10;73.50
70820;DHT22;58439;51.046;13.692;2023-05-31T02:28:28;12.00;74.10
70820;DHT22;58439;51.046;13.692;2023-05-31T02:30:56;12.00;74.10
70820;DHT22;58439;51.046;13.692;2023-05-31T02:33:29;12.00;74.30
70820;DHT22;58439;51.046;13.692;2023-05-31T02:36:00;12.00;74.80
70820;DHT22;58439;51.046;13.692;2023-05-31T02:38:27;11.80;75.80
70820;DHT22;58439;51.046;13.692;2023-05-31T02:40:57;11.70;76.70
70820;DHT22;58439;51.046;13.692;2023-05-31T02:43:24;11.60;77.80
70820;DHT22;58439;51.046;13.692;2023-05-31T02:45:52;11.70;78.30
70820;DHT22;58439;51.046;13.692;2023-05-31T02:48:19;11.70;78.70
70820;DHT22;58439;51.046;13.692;2023-05-31T02:50:46;11.70;78.90
70820;DHT22;58439;51.046;13.692;2023-05-31T02:53:26;11.70;78.70
70820;DHT22;58439;51.046;13.692;2023-05-31T02:55:56;11.70;79.30
70820;DHT22;58439;51.046;13.692;2023-05-31T02:58:23;11.60;79.80
70820;DHT22;58439;51.046;13.692;2023-05-31T03:01:10;11.60;80.30
70820;DHT22;58439;51.046;13.692;2023-05-31T03:03:56;11.60;80.00
70820;DHT22;58439;51.046;13.692;2023-05-31T03:06:30;11.50;80.10
70820;DHT22;58439;51.046;13.692;2023-05-31T03:08:58;11.40;81.50
70820;DHT22;58439;51.046;13.692;2023-05-31T03:11:26;11.40;81.50
70820;DHT22;58439;51.046;13.692;2023-05-31T03:13:55;11.40;82.10
70820;DHT22;58439;51.046;13.692;2023-05-31T03:16:25;11.50;82.00
70820;DHT22;58439;51.046;13.692;2023-05-31T03:18:52;11.60;81.20
70820;DHT22;58439;51.046;13.692;2023-05-31T03:21:19;11.50;81.30
70820;DHT22;58439;51.046;13.692;2023-05-31T03:23:47;11.50;81.80
70820;DHT22;58439;51.046;13.692;2023-05-31T03:26:14;11.40;82.60
70820;DHT22;58439;51.046;13.692;2023-05-31T03:28:42;11.50;82.90
70820;DHT22;58439;51.046;13.692;2023-05-31T03:31:09;11.60;82.70
70820;DHT22;58439;51.046;13.692;2023-05-31T03:33:36;11.60;82.60
70820;DHT22;58439;51.046;13.692;2023-05-31T03:36:09;11.60;82.40
70820;DHT22;58439;51.046;13.692;2023-05-31T03:38:36;11.60;82.00
70820;DHT22;58439;51.046;13.692;2023-05-31T03:41:03;11.60;82.10
70820;DHT22;58439;51.046;13.692;2023-05-31T03:43:31;11.60;82.20
70820;DHT22;58439;51.046;13.692;2023-05-31T03:45:58;11.60;82.00
70820;DHT22;58439;51.046;13.692;2023-05-31T03:48:28;11.70;81.00
70820;DHT22;58439;51.046;13.692;2023-05-31T03:50:56;11.70;81.00
70820;DHT22;58439;51.046;13.692;2023-05-31T03:53:24;11.70;80.80
70820;DHT22;58439;51.046;13.692;2023-05-31T03:55:52;11.60;81.30
70820;DHT22;58439;51.046;13.692;2023-05-31T03:58:20;11.70;81.20
70820;DHT22;58439;51.046;13.692;2023-05-31T04:00:48;11.80;81.50
70820;DHT22;58439;51.046;13.692;2023-05-31T04:03:16;11.90;81.00
70820;DHT22;58439;51.046;13.692;2023-05-31T04:05:45;12.00;80.10
70820;DHT22;58439;51.046;13.692;2023-05-31T04:08:12;12.00;79.40
70820;DHT22;58439;51.046;13.692;2023-05-31T04:10:39;12.10;79.50
70820;DHT22;58439;51.046;13.692;2023-05-31T04:13:07;12.10;78.40
70820;DHT22;58439;51.046;13.692;2023-05-31T04:15:35;12.10;78.00
70820;DHT22;58439;51.046;13.692;2023-05-31T04:18:03;12.00;77.80
70820;DHT22;58439;51.046;13.692;2023-05-31T04:20:31;12.00;78.40
70820;DHT22;58439;51.046;13.692;2023-05-31T04:22:59;12.10;79.10
70820;DHT22;58439;51.046;13.692;2023-05-31T04:25:26;12.20;78.20
70820;DHT22;58439;51.046;13.692;2023-05-31T04:27:54;12.20;77.60
70820;DHT22;58439;51.046;13.692;2023-05-31T04:30:23;12.20;77.60
70820;DHT22;58439;51.046;13.692;2023-05-31T04:32:54;12.30;77.80
70820;DHT22;58439;51.046;13.692;2023-05-31T04:35:24;12.50;77.10
70820;DHT22;58439;51.046;13.692;2023-05-31T04:37:56;12.60;75.50
70820;DHT22;58439;51.046;13.692;2023-05-31T04:40:29;12.70;74.60
70820;DHT22;58439;51.046;13.692;2023-05-31T04:42:59;12.80;73.60
70820;DHT22;58439;51.046;13.692;2023-05-31T04:45:29;12.80;72.70
70820;DHT22;58439;51.046;13.692;2023-05-31T04:48:00;12.80;72.10
70820;DHT22;58439;51.046;13.692;2023-05-31T04:50:29;12.80;71.40
70820;DHT22;58439;51.046;13.692;2023-05-31T04:52:58;12.90;71.30
70820;DHT22;58439;51.046;13.692;2023-05-31T04:55:25;12.90;70.80
70820;DHT22;58439;51.046;13.692;2023-05-31T04:57:55;12.90;70.20
70820;DHT22;58439;51.046;13.692;2023-05-31T05:00:25;13.00;70.30
70820;DHT22;58439;51.046;13.692;2023-05-31T05:03:08;13.00;69.90
70820;DHT22;58439;51.046;13.692;2023-05-31T05:05:37;13.10;69.30
70820;DHT22;58439;51.046;13.692;2023-05-31T05:08:05;13.20;68.70
70820;DHT22;58439;51.046;13.692;2023-05-31T05:10:35;13.20;67.70
70820;DHT22;58439;51.046;13.692;2023-05-31T05:13:03;13.20;67.00
70820;DHT22;58439;51.046;13.692;2023-05-31T05:15:30;13.30;66.70
70820;DHT22;58439;51.046;13.692;2023-05-31T05:17:57;13.30;66.20
70820;DHT22;58439;51.046;13.692;2023-05-31T05:20:24;13.40;65.90
70820;DHT22;58439;51.046;13.692;2023-05-31T05:22:52;13.50;65.40
70820;DHT22;58439;51.046;13.692;2023-05-31T05:25:20;13.60;64.50
70820;DHT22;58439;51.046;13.692;2023-05-31T05:27:49;13.70;63.90
70820;DHT22;58439;51.046;13.692;2023-05-31T05:30:17;13.90;63.20
70820;DHT22;58439;51.046;13.692;2023-05-31T05:32:47;14.00;62.70
70820;DHT22;58439;51.046;13.692;2023-05-31T05:35:14;14.00;62.10
70820;DHT22;58439;51.046;13.692;2023-05-31T05:37:42;14.10;61.30
70820;DHT22;58439;51.046;13.692;2023-05-31T05:40:10;14.10;61.10
70820;DHT22;58439;51.046;13.692;2023-05-31T05:42:39;14.30;60.50
70820;DHT22;58439;51.046;13.692;2023-05-31T05:45:11;14.40;60.10
70820;DHT22;58439;51.046;13.692;2023-05-31T05:47:41;14.60;59.20
70820;DHT22;58439;51.046;13.692;2023-05-31T05:50:15;14.70;57.90
70820;DHT22;58439;51.046;13.692;2023-05-31T05:52:45;14.80;57.10
70820;DHT22;58439;51.046;13.692;2023-05-31T05:55:13;14.90;55.80
70820;DHT22;58439;51.046;13.692;2023-05-31T05:57:41;15.00;54.80
70820;DHT22;58439;51.046;13.692;2023-05-31T06:00:22;15.10;54.20
70820;DHT22;58439;51.046;13.692;2023-05-31T06:02:51;15.20;52.80
70820;DHT22;58439;51.046;13.692;2023-05-31T06:05:19;15.30;52.00
70820;DHT22;58439;51.046;13.692;2023-05-31T06:07:53;15.40;51.20
70820;DHT22;58439;51.046;13.692;2023-05-31T06:10:21;15.40;50.40
70820;DHT22;58439;51.046;13.692;2023-05-31T06:12:48;15.40;50.10
70820;DHT22;58439;51.046;13.692;2023-05-31T06:15:16;15.50;50.00
70820;DHT22;58439;51.046;13.692;2023-05-31T06:17:45;15.60;49.80
70820;DHT22;58439;51.046;13.692;2023-05-31T06:20:15;15.80;49.30
70820;DHT22;58439;51.046;13.692;2023-05-31T06:22:44;15.90;48.80
70820;DHT22;58439;51.046;13.692;2023-05-31T06:25:14;15.90;48.50
70820;DHT22;58439;51.046;13.692;2023-05-31T06:27:43;16.10;48.20
70820;DHT22;58439;51.046;13.692;2023-05-31T06:30:13;16.20;47.50
70820;DHT22;58439;51.046;13.692;2023-05-31T06:32:46;16.30;46.80
70820;DHT22;58439;51.046;13.692;2023-05-31T06:35:21;16.40;46.60
70820;DHT22;58439;51.046;13.692;2023-05-31T06:37:49;16.50;46.30
70820;DHT22;58439;51.046;13.692;2023-05-31T06:40:18;16.60;45.70
70820;DHT22;58439;51.046;13.692;2023-05-31T06:42:46;16.70;45.00
70820;DHT22;58439;51.046;13.692;2023-05-31T06:45:25;16.80;44.90
70820;DHT22;58439;51.046;13.692;2023-05-31T06:47:53;16.90;44.30
70820;DHT22;58439;51.046;13.692;2023-05-31T06:50:39;17.00;43.90
70820;DHT22;58439;51.046;13.692;2023-05-31T06:53:12;17.10;43.90
70820;DHT22;58439;51.046;13.692;2023-05-31T06:55:49;17.20;43.40
70820;DHT22;58439;51.046;13.692;2023-05-31T06:58:20;17.30;43.00
70820;DHT22;58439;51.046;13.692;2023-05-31T07:00:50;17.40;42.40
70820;DHT22;58439;51.046;13.692;2023-05-31T07:03:19;17.50;41.90
70820;DHT22;58439;51.046;13.692;2023-05-31T07:05:46;17.60;41.70
70820;DHT22;58439;51.046;13.692;2023-05-31T07:08:17;17.70;41.50
70820;DHT22;58439;51.046;13.692;2023-05-31T07:11:44;17.90;41.60
70820;DHT22;58439;51.046;13.692;2023-05-31T07:15:10;18.10;41.10
70820;DHT22;58439;51.046;13.692;2023-05-31T07:17:38;18.30;39.90
70820;DHT22;58439;51.046;13.692;2023-05-31T07:20:08;18.40;39.50
70820;DHT22;58439;51.046;13.692;2023-05-31T07:22:47;18.60;39.20
70820;DHT22;58439;51.046;13.692;2023-05-31T07:25:27;18.70;38.60
70820;DHT22;58439;51.046;13.692;2023-05-31T07:28:37;18.90;38.00
70820;DHT22;58439;51.046;13.692;2023-05-31T07:31:05;18.90;36.60
70820;DHT22;58439;51.046;13.692;2023-05-31T07:33:32;19.00;36.40
70820;DHT22;58439;51.046;13.692;2023-05-31T07:36:00;19.10;35.80
70820;DHT22;58439;51.046;13.692;2023-05-31T07:38:28;19.20;35.80
70820;DHT22;58439;51.046;13.692;2023-05-31T07:40:59;19.30;35.60
70820;DHT22;58439;51.046;13.692;2023-05-31T07:43:26;19.40;35.30
70820;DHT22;58439;51.046;13.692;2023-05-31T07:45:58;19.60;36.10
70820;DHT22;58439;51.046;13.692;2023-05-31T07:48:25;19.70;34.70
70820;DHT22;58439;51.046;13.692;2023-05-31T07:50:54;19.90;34.40
70820;DHT22;58439;51.046;13.692;2023-05-31T07:53:21;20.00;33.80
70820;DHT22;58439;51.046;13.692;2023-05-31T07:55:49;20.10;33.10
70820;DHT22;58439;51.046;13.692;2023-05-31T07:58:16;20.20;32.20
70820;DHT22;58439;51.046;13.692;2023-05-31T08:00:44;20.20;31.60
70820;DHT22;58439;51.046;13.692;2023-05-31T08:03:15;20.20;31.20
70820;DHT22;58439;51.046;13.692;2023-05-31T08:05:43;20.20;31.90
70820;DHT22;58439;51.046;13.692;2023-05-31T08:08:19;20.30;30.80
70820;DHT22;58439;51.046;13.692;2023-05-31T08:10:46;20.40;30.70
70820;DHT22;58439;51.046;13.692;2023-05-31T08:13:16;20.40;30.30
70820;DHT22;58439;51.046;13.692;2023-05-31T08:15:47;20.60;30.30
70820;DHT22;58439;51.046;13.692;2023-05-31T08:18:22;20.70;30.20
70820;DHT22;58439;51.046;13.692;2023-05-31T08:20:53;20.80;30.00
70820;DHT22;58439;51.046;13.692;2023-05-31T08:23:34;20.90;29.80
70820;DHT22;58439;51.046;13.692;2023-05-31T08:26:10;21.00;29.80
70820;DHT22;58439;51.046;13.692;2023-05-31T08:28:37;21.10;29.70
70820;DHT22;58439;51.046;13.692;2023-05-31T08:31:04;21.20;29.60
70820;DHT22;58439;51.046;13.692;2023-05-31T08:33:35;21.20;29.50
70820;DHT22;58439;51.046;13.692;2023-05-31T08:36:11;21.20;29.10
70820;DHT22;58439;51.046;13.692;2023-05-31T08:38:54;21.30;29.00
70820;DHT22;58439;51.046;13.692;2023-05-31T08:42:07;21.40;28.70
70820;DHT22;58439;51.046;13.692;2023-05-31T08:44:45;21.40;28.50
70820;DHT22;58439;51.046;13.692;2023-05-31T08:47:43;21.50;28.50
70820;DHT22;58439;51.046;13.692;2023-05-31T08:50:32;21.70;28.40
70820;DHT22;58439;51.046;13.692;2023-05-31T08:53:24;21.80;27.70
70820;DHT22;58439;51.046;13.692;2023-05-31T08:56:03;21.90;27.50
70820;DHT22;58439;51.046;13.692;2023-05-31T08:58:32;21.90;27.50
70820;DHT22;58439;51.046;13.692;2023-05-31T09:01:22;21.90;27.40
70820;DHT22;58439;51.046;13.692;2023-05-31T09:03:54;22.00;27.50
70820;DHT22;58439;51.046;13.692;2023-05-31T09:06:28;22.10;27.20
70820;DHT22;58439;51.046;13.692;2023-05-31T09:09:12;22.20;27.20
70820;DHT22;58439;51.046;13.692;2023-05-31T09:11:41;22.40;27.00
70820;DHT22;58439;51.046;13.692;2023-05-31T09:14:15;22.50;26.90
70820;DHT22;58439;51.046;13.692;2023-05-31T09:16:44;22.60;26.80
70820;DHT22;58439;51.046;13.692;2023-05-31T09:19:21;22.70;26.80
70820;DHT22;58439;51.046;13.692;2023-05-31T09:21:51;22.70;26.40
70820;DHT22;58439;51.046;13.692;2023-05-31T09:24:25;22.70;26.30
70820;DHT22;58439;51.046;13.692;2023-05-31T09:27:07;22.60;26.40
70820;DHT22;58439;51.046;13.692;2023-05-31T09:29:36;22.60;26.50
70820;DHT22;58439;51.046;13.692;2023-05-31T09:32:09;22.70;26.30
70820;DHT22;58439;51.046;13.692;2023-05-31T09:34:37;22.80;26.70
70820;DHT22;58439;51.046;13.692;2023-05-31T09:37:04;22.90;25.70
70820;DHT22;58439;51.046;13.692;2023-05-31T09:39:31;23.00;25.80
70820;DHT22;58439;51.046;13.692;2023-05-31T09:42:04;23.00;25.70
70820;DHT22;58439;51.046;13.692;2023-05-31T09:44:47;23.10;25.70
70820;DHT22;58439;51.046;13.692;2023-05-31T09:47:23;23.20;25.80
70820;DHT22;58439;51.046;13.692;2023-05-31T09:54:39;23.40;25.70
70820;DHT22;58439;51.046;13.692;2023-05-31T09:57:29;23.50;25.70
70820;DHT22;58439;51.046;13.692;2023-05-31T10:00:17;23.60;25.50
70820;DHT22;58439;51.046;13.692;2023-05-31T10:24:25;24.10;24.30
70820;DHT22;58439;51.046;13.692;2023-05-31T10:30:57;24.30;23.70
70820;DHT22;58439;51.046;13.692;2023-05-31T10:33:28;24.40;23.30
70820;DHT22;58439;51.046;13.692;2023-05-31T10:36:02;24.30;22.90
70820;DHT22;58439;51.046;13.692;2023-05-31T10:39:08;24.30;23.00
70820;DHT22;58439;51.046;13.692;2023-05-31T10:41:44;24.50;23.00
70820;DHT22;58439;51.046;13.692;2023-05-31T10:44:33;24.70;22.50
70820;DHT22;58439;51.046;13.692;2023-05-31T10:47:24;24.90;22.40
70820;DHT22;58439;51.046;13.692;2023-05-31T10:53:30;25.20;22.10
70820;DHT22;58439;51.046;13.692;2023-05-31T11:00:28;25.50;21.30
70820;DHT22;58439;51.046;13.692;2023-05-31T11:03:44;25.70;21.50
70820;DHT22;58439;51.046;13.692;2023-05-31T11:06:29;26.20;21.00
70820;DHT22;58439;51.046;13.692;2023-05-31T11:09:11;26.80;19.90
70820;DHT22;58439;51.046;13.692;2023-05-31T11:11:44;27.30;19.20
70820;DHT22;58439;51.046;13.692;2023-05-31T11:14:26;27.90;18.90
70820;DHT22;58439;51.046;13.692;2023-05-31T11:19:36;28.90;18.40
70820;DHT22;58439;51.046;13.692;2023-05-31T11:22:12;29.40;18.30
70820;DHT22;58439;51.046;13.692;2023-05-31T11:24:53;29.90;17.60
70820;DHT22;58439;51.046;13.692;2023-05-31T11:27:23;29.90;17.10
70820;DHT22;58439;51.046;13.692;2023-05-31T11:30:02;29.90;17.20
70820;DHT22;58439;51.046;13.692;2023-05-31T11:35:03;30.10;16.20
70820;DHT22;58439;51.046;13.692;2023-05-31T11:37:35;30.00;16.20
70820;DHT22;58439;51.046;13.692;2023-05-31T11:40:09;30.10;15.90
70820;DHT22;58439;51.046;13.692;2023-05-31T11:42:40;30.30;16.10
70820;DHT22;58439;51.046;13.692;2023-05-31T11:45:11;30.70;15.70
70820;DHT22;58439;51.046;13.692;2023-05-31T11:50:31;31.10;14.50
70820;DHT22;58439;51.046;13.692;2023-05-31T11:53:02;31.00;14.30
70820;DHT22;58439;51.046;13.692;2023-05-31T11:55:30;30.70;14.80
70820;DHT22;58439;51.046;13.692;2023-05-31T11:58:05;30.40;15.40
70820;DHT22;58439;51.046;13.692;2023-05-31T12:00:43;30.50;15.50
70820;DHT22;58439;51.046;13.692;2023-05-31T12:03:22;30.80;15.10
70820;DHT22;58439;51.046;13.692;2023-05-31T12:06:00;31.10;14.90
70820;DHT22;58439;51.046;13.692;2023-05-31T12:08:32;31.40;14.80
70820;DHT22;58439;51.046;13.692;2023-05-31T12:11:05;31.60;14.00
70820;DHT22;58439;51.046;13.692;2023-05-31T12:13:38;31.30;13.70
70820;DHT22;58439;51.046;13.692;2023-05-31T12:16:08;31.40;13.70
70820;DHT22;58439;51.046;13.692;2023-05-31T12:18:35;31.60;13.50
70820;DHT22;58439;51.046;13.692;2023-05-31T12:21:10;31.70;13.60
70820;DHT22;58439;51.046;13.692;2023-05-31T12:26:21;32.60;13.20
70820;DHT22;58439;51.046;13.692;2023-05-31T12:28:50;32.60;13.00
70820;DHT22;58439;51.046;13.692;2023-05-31T12:31:22;32.70;13.00
70820;DHT22;58439;51.046;13.692;2023-05-31T12:34:05;32.90;12.90
70820;DHT22;58439;51.046;13.692;2023-05-31T12:36:47;33.00;13.00
70820;DHT22;58439;51.046;13.692;2023-05-31T12:39:22;33.00;13.10
70820;DHT22;58439;51.046;13.692;2023-05-31T12:41:53;33.10;12.90
70820;DHT22;58439;51.046;13.692;2023-05-31T12:44:21;33.10;12.80
70820;DHT22;58439;51.046;13.692;2023-05-31T12:46:58;33.10;13.00
70820;DHT22;58439;51.046;13.692;2023-05-31T12:49:31;33.00;12.80
70820;DHT22;58439;51.046;13.692;2023-05-31T12:52:04;33.40;12.80
70820;DHT22;58439;51.046;13.692;2023-05-31T12:54:41;33.60;12.50
70820;DHT22;58439;51.046;13.692;2023-05-31T12:57:11;33.80;12.20
70820;DHT22;58439;51.046;13.692;2023-05-31T12:59:38;33.90;12.00
70820;DHT22;58439;51.046;13.692;2023-05-31T13:02:05;34.10;11.80
70820;DHT22;58439;51.046;13.692;2023-05-31T13:04:33;34.00;12.20
70820;DHT22;58439;51.046;13.692;2023-05-31T13:07:00;34.10;12.40
70820;DHT22;58439;51.046;13.692;2023-05-31T13:09:29;34.10;12.30
70820;DHT22;58439;51.046;13.692;2023-05-31T13:11:56;34.40;12.20
70820;DHT22;58439;51.046;13.692;2023-05-31T13:14:23;34.50;12.10
70820;DHT22;58439;51.046;13.692;2023-05-31T13:16:53;34.70;12.10
70820;DHT22;58439;51.046;13.692;2023-05-31T13:19:24;34.70;11.90
70820;DHT22;58439;51.046;13.692;2023-05-31T13:21:52;34.80;11.40
70820;DHT22;58439;51.046;13.692;2023-05-31T13:24:19;34.70;11.20
70820;DHT22;58439;51.046;13.692;2023-05-31T13:26:48;34.60;11.10
70820;DHT22;58439;51.046;13.692;2023-05-31T13:29:15;34.60;11.40
70820;DHT22;58439;51.046;13.692;2023-05-31T13:31:43;34.90;11.20
70820;DHT22;58439;51.046;13.692;2023-05-31T13:34:10;34.80;11.40
70820;DHT22;58439;51.046;13.692;2023-05-31T13:36:37;34.80;11.40
70820;DHT22;58439;51.046;13.692;2023-05-31T13:39:04;34.90;11.40
70820;DHT22;58439;51.046;13.692;2023-05-31T13:41:31;35.00;11.40
70820;DHT22;58439;51.046;13.692;2023-05-31T13:44:00;34.90;11.40
70820;DHT22;58439;51.046;13.692;2023-05-31T13:46:27;34.90;11.30
70820;DHT22;58439;51.046;13.692;2023-05-31T13:48:57;35.00;11.30
70820;DHT22;58439;51.046;13.692;2023-05-31T13:51:24;35.30;11.40
70820;DHT22;58439;51.046;13.692;2023-05-31T13:53:51;35.30;11.80
70820;DHT22;58439;51.046;13.692;2023-05-31T13:56:18;35.10;10.50
70820;DHT22;58439;51.046;13.692;2023-05-31T13:58:45;34.80;10.80
70820;DHT22;58439;51.046;13.692;2023-05-31T14:01:12;34.60;10.70
70820;DHT22;58439;51.046;13.692;2023-05-31T14:03:39;34.70;10.70
70820;DHT22;58439;51.046;13.692;2023-05-31T14:06:07;34.80;11.20
70820;DHT22;58439;51.046;13.692;2023-05-31T14:08:35;34.90;11.40
70820;DHT22;58439;51.046;13.692;2023-05-31T14:11:02;35.20;11.30
70820;DHT22;58439;51.046;13.692;2023-05-31T14:13:29;35.40;11.10
70820;DHT22;58439;51.046;13.692;2023-05-31T14:15:57;35.40;11.30
70820;DHT22;58439;51.046;13.692;2023-05-31T14:18:25;35.30;11.30
70820;DHT22;58439;51.046;13.692;2023-05-31T14:20:52;35.40;11.00
70820;DHT22;58439;51.046;13.692;2023-05-31T14:23:22;35.70;11.20
70820;DHT22;58439;51.046;13.692;2023-05-31T14:25:50;36.10;11.30
70820;DHT22;58439;51.046;13.692;2023-05-31T14:28:17;36.30;10.90
70820;DHT22;58439;51.046;13.692;2023-05-31T14:30:44;36.20;12.00
70820;DHT22;58439;51.046;13.692;2023-05-31T14:33:11;36.30;11.10
70820;DHT22;58439;51.046;13.692;2023-05-31T14:35:39;36.20;11.20
70820;DHT22;58439;51.046;13.692;2023-05-31T14:38:06;36.20;11.00
70820;DHT22;58439;51.046;13.692;2023-05-31T14:40:48;36.20;10.80
70820;DHT22;58439;51.046;13.692;2023-05-31T14:43:18;36.10;10.90
70820;DHT22;58439;51.046;13.692;2023-05-31T14:45:45;35.90;10.90
70820;DHT22;58439;51.046;13.692;2023-05-31T14:48:14;35.90;11.20
70820;DHT22;58439;51.046;13.692;2023-05-31T14:50:41;35.90;11.50
70820;DHT22;58439;51.046;13.692;2023-05-31T14:53:09;35.90;11.30
70820;DHT22;58439;51.046;13.692;2023-05-31T14:55:40;35.60;11.70
70820;DHT22;58439;51.046;13.692;2023-05-31T14:58:07;35.60;11.80
70820;DHT22;58439;51.046;13.692;2023-05-31T15:00:34;35.60;11.50
70820;DHT22;58439;51.046;13.692;2023-05-31T15:03:02;35.60;11.50
70820;DHT22;58439;51.046;13.692;2023-05-31T15:05:29;36.00;11.50
70820;DHT22;58439;51.046;13.692;2023-05-31T15:07:56;35.90;11.30
70820;DHT22;58439;51.046;13.692;2023-05-31T15:10:23;36.20;11.20
70820;DHT22;58439;51.046;13.692;2023-05-31T15:12:53;36.40;11.10
70820;DHT22;58439;51.046;13.692;2023-05-31T15:15:20;36.50;11.00
70820;DHT22;58439;51.046;13.692;2023-05-31T15:17:47;36.50;10.60
70820;DHT22;58439;51.046;13.692;2023-05-31T15:20:15;36.30;10.60
70820;DHT22;58439;51.046;13.692;2023-05-31T15:22:42;36.40;10.40
70820;DHT22;58439;51.046;13.692;2023-05-31T15:25:09;36.40;10.40
70820;DHT22;58439;51.046;13.692;2023-05-31T15:27:37;36.50;10.40
70820;DHT22;58439;51.046;13.692;2023-05-31T15:30:04;36.60;10.40
70820;DHT22;58439;51.046;13.692;2023-05-31T15:32:32;36.50;10.50
70820;DHT22;58439;51.046;13.692;2023-05-31T15:34:59;36.50;10.40
70820;DHT22;58439;51.046;13.692;2023-05-31T15:37:26;36.40;10.40
70820;DHT22;58439;51.046;13.692;2023-05-31T15:39:54;36.50;10.50
70820;DHT22;58439;51.046;13.692;2023-05-31T15:42:22;36.40;10.60
70820;DHT22;58439;51.046;13.692;2023-05-31T15:44:51;36.30;10.70
70820;DHT22;58439;51.046;13.692;2023-05-31T15:47:18;36.50;10.50
70820;DHT22;58439;51.046;13.692;2023-05-31T15:49:47;36.70;10.40
70820;DHT22;58439;51.046;13.692;2023-05-31T15:52:14;36.90;10.50
70820;DHT22;58439;51.046;13.692;2023-05-31T15:54:41;37.20;10.50
70820;DHT22;58439;51.046;13.692;2023-05-31T15:57:08;37.50;10.50
70820;DHT22;58439;51.046;13.692;2023-05-31T15:59:36;37.90;10.30
70820;DHT22;58439;51.046;13.692;2023-05-31T16:02:03;38.10;9.80
70820;DHT22;58439;51.046;13.692;2023-05-31T16:04:31;38.00;9.70
70820;DHT22;58439;51.046;13.692;2023-05-31T16:06:59;38.00;9.90
70820;DHT22;58439;51.046;13.692;2023-05-31T16:09:26;37.70;9.90
70820;DHT22;58439;51.046;13.692;2023-05-31T16:11:53;37.50;10.00
70820;DHT22;58439;51.046;13.692;2023-05-31T16:14:20;37.30;10.20
70820;DHT22;58439;51.046;13.692;2023-05-31T16:16:47;37.10;10.40
70820;DHT22;58439;51.046;13.692;2023-05-31T16:19:15;36.60;10.70
70820;DHT22;58439;51.046;13.692;2023-05-31T16:21:42;36.20;11.00
70820;DHT22;58439;51.046;13.692;2023-05-31T16:24:09;36.10;11.00
70820;DHT22;58439;51.046;13.692;2023-05-31T16:26:39;35.80;11.00
70820;DHT22;58439;51.046;13.692;2023-05-31T16:29:06;35.70;11.20
70820;DHT22;58439;51.046;13.692;2023-05-31T16:31:36;35.70;11.10
70820;DHT22;58439;51.046;13.692;2023-05-31T16:34:04;35.90;10.90
70820;DHT22;58439;51.046;13.692;2023-05-31T16:36:31;35.90;10.80